Time;durP1;ratioP1;P1;durP2;ratioP2;P2;SDS_P1;SDS_P2;PMS_P1;PMS_P2;Temp;Humidity;BMP_temperature;BMP_pressure;BME280_temperature;BME280_humidity;BME280_pressure;Samples;Min_cycle;Max_cycle;Signal;HPM_P1;HPM_P2
2024/01/23 00:00:29;;;;;;;1.27;0.90;;;11.20;65.50;;;;;;5040494;28;20920;-62
2024/01/23 00:02:55;;;;;;;0.90;0.80;;;11.30;65.60;;;;;;5040090;28;20547;-61
2024/01/23 00:05:20;;;;;;;2.80;1.03;;;11.20;65.50;;;;;;5039809;28;20185;-61
2024/01/23 00:07:46;;;;;;;0.73;0.73;;;11.40;65.50;;;;;;5041714;28;20200;-60
2024/01/23 00:10:11;;;;;;;3.30;1.10;;;11.60;64.90;;;;;;5040029;28;20189;-62
2024/01/23 00:12:37;;;;;;;3.20;0.97;;;11.60;64.50;;;;;;5040338;28;20192;-62
2024/01/23 00:15:03;;;;;;;2.40;1.20;;;11.40;64.70;;;;;;5041547;28;20573;-62
2024/01/23 00:17:29;;;;;;;2.67;1.03;;;11.50;64.30;;;;;;5042668;28;20215;-63
2024/01/23 00:19:55;;;;;;;1.17;0.90;;;11.40;64.30;;;;;;5042200;28;20790;-62
2024/01/23 00:22:21;;;;;;;2.93;1.27;;;11.40;64.60;;;;;;5039812;28;20181;-60
2024/01/23 00:24:47;;;;;;;1.37;1.00;;;11.60;64.20;;;;;;5041955;28;20489;-59
2024/01/23 00:27:12;;;;;;;3.17;1.50;;;11.80;63.20;;;;;;5041571;28;20290;-62
2024/01/23 00:29:38;;;;;;;3.40;1.00;;;11.80;63.20;;;;;;5037106;28;20185;-60
2024/01/23 00:32:05;;;;;;;1.63;1.00;;;11.80;62.90;;;;;;5047273;28;20199;-63
2024/01/23 00:34:30;;;;;;;2.20;0.90;;;11.70;62.90;;;;;;5041542;28;20319;-63
2024/01/23 00:36:56;;;;;;;1.40;0.90;;;11.60;63.20;;;;;;5047790;28;20573;-59
2024/01/23 00:39:23;;;;;;;2.50;1.00;;;11.40;63.40;;;;;;5044699;28;20219;-59
2024/01/23 00:41:49;;;;;;;2.10;1.03;;;11.60;63.70;;;;;;5040661;28;20188;-62
2024/01/23 00:44:14;;;;;;;4.03;1.20;;;11.50;63.30;;;;;;5043543;28;20477;-62
2024/01/23 00:46:40;;;;;;;2.97;1.00;;;11.50;63.20;;;;;;5040707;28;20208;-60
2024/01/23 00:49:05;;;;;;;3.03;1.00;;;11.60;63.20;;;;;;5040581;28;20235;-60
2024/01/23 00:51:31;;;;;;;2.07;1.27;;;11.60;63.00;;;;;;5045414;28;20611;-62
2024/01/23 00:53:57;;;;;;;4.10;1.87;;;11.70;63.00;;;;;;5045932;28;20583;-59
2024/01/23 00:56:23;;;;;;;1.90;1.03;;;11.90;62.10;;;;;;5047108;28;20205;-62
2024/01/23 00:58:49;;;;;;;1.73;1.10;;;11.70;62.40;;;;;;5047280;28;20436;-63
2024/01/23 01:01:14;;;;;;;2.67;1.30;;;11.80;63.00;;;;;;5046043;28;20181;-62
2024/01/23 01:03:40;;;;;;;2.33;1.13;;;12.00;62.60;;;;;;5045714;28;20299;-60
2024/01/23 01:06:05;;;;;;;2.00;1.27;;;11.80;62.40;;;;;;5045197;28;20201;-62
2024/01/23 01:08:31;;;;;;;3.97;1.20;;;12.00;62.10;;;;;;5049644;28;20177;-61
2024/01/23 01:10:57;;;;;;;1.47;1.17;;;12.10;61.60;;;;;;5041563;28;20732;-59
2024/01/23 01:13:23;;;;;;;4.00;1.47;;;12.00;61.80;;;;;;5049357;28;20198;-60
2024/01/23 01:15:49;;;;;;;4.80;1.40;;;11.80;62.30;;;;;;5044065;28;20246;-63
2024/01/23 01:18:14;;;;;;;3.60;1.40;;;11.90;62.60;;;;;;5045792;28;20443;-62
2024/01/23 01:20:40;;;;;;;2.80;1.30;;;11.70;62.90;;;;;;5044861;28;20763;-62
2024/01/23 01:23:05;;;;;;;2.30;1.30;;;11.70;63.50;;;;;;5041560;28;20271;-63
2024/01/23 01:25:31;;;;;;;3.60;1.10;;;11.60;63.90;;;;;;5048845;28;20257;-58
2024/01/23 01:27:56;;;;;;;4.03;1.17;;;11.30;64.60;;;;;;5046355;28;20193;-60
2024/01/23 01:30:26;;;;;;;4.20;1.20;;;10.80;66.00;;;;;;5046636;28;20184;-60
2024/01/23 01:32:52;;;;;;;2.93;1.00;;;10.50;67.50;;;;;;5041902;28;20396;-59
2024/01/23 01:35:18;;;;;;;3.43;1.30;;;10.50;68.90;;;;;;5045256;28;20926;-63
2024/01/23 01:37:43;;;;;;;3.60;1.90;;;10.50;68.80;;;;;;5041894;28;20226;-59
2024/01/23 01:40:11;;;;;;;5.03;1.27;;;10.60;68.20;;;;;;5041513;28;20189;-62
2024/01/23 01:42:36;;;;;;;1.57;1.00;;;10.80;67.40;;;;;;5042051;28;20786;-60
2024/01/23 01:45:03;;;;;;;2.40;1.03;;;10.70;66.70;;;;;;5041794;28;20628;-64
2024/01/23 01:47:29;;;;;;;3.73;1.00;;;10.80;66.20;;;;;;5039673;28;20254;-59
2024/01/23 01:49:54;;;;;;;5.07;1.50;;;10.80;65.90;;;;;;5045734;28;20450;-59
2024/01/23 01:52:20;;;;;;;3.43;1.20;;;10.80;65.60;;;;;;5040784;28;20439;-62
2024/01/23 01:54:47;;;;;;;3.47;1.30;;;10.80;65.80;;;;;;5039206;28;20204;-62
2024/01/23 01:57:15;;;;;;;3.93;0.93;;;10.80;66.30;;;;;;5045467;28;20470;-61
2024/01/23 01:59:40;;;;;;;6.77;1.87;;;10.90;66.80;;;;;;5043897;28;20436;-61
2024/01/23 02:02:07;;;;;;;2.33;1.13;;;11.10;67.40;;;;;;5044745;28;20989;-62
2024/01/23 02:04:32;;;;;;;3.83;1.30;;;11.10;67.30;;;;;;5043937;28;20231;-61
2024/01/23 02:06:58;;;;;;;3.90;1.20;;;11.20;67.10;;;;;;5045288;28;20870;-63
2024/01/23 02:09:23;;;;;;;3.63;1.70;;;11.00;66.70;;;;;;5038690;28;20223;-63
2024/01/23 02:12:08;;;;;;;3.87;1.40;;;11.10;66.90;;;;;;5041400;28;20200;-61
2024/01/23 02:14:34;;;;;;;3.57;1.30;;;11.20;66.50;;;;;;5042352;28;20199;-62
2024/01/23 02:16:59;;;;;;;4.57;1.20;;;11.20;66.20;;;;;;5042065;28;20858;-63
2024/01/23 02:19:28;;;;;;;2.33;1.37;;;11.00;66.20;;;;;;5043245;28;20176;-62
2024/01/23 02:21:54;;;;;;;2.10;1.07;;;11.20;66.20;;;;;;5045345;28;20611;-61
2024/01/23 02:24:19;;;;;;;1.33;1.10;;;11.20;65.50;;;;;;5040761;28;20482;-63
2024/01/23 02:26:45;;;;;;;4.37;1.30;;;11.00;65.50;;;;;;5036206;28;20468;-62
2024/01/23 02:29:11;;;;;;;4.93;1.20;;;11.00;65.60;;;;;;5044866;28;20189;-63
2024/01/23 02:31:37;;;;;;;3.70;1.20;;;11.00;65.30;;;;;;5047751;28;20324;-63
2024/01/23 02:34:03;;;;;;;4.87;1.53;;;10.90;65.70;;;;;;5041909;28;20435;-62
2024/01/23 02:36:28;;;;;;;4.50;1.43;;;10.80;66.10;;;;;;5042748;28;20464;-62
2024/01/23 02:38:54;;;;;;;3.67;1.20;;;10.70;67.30;;;;;;5042173;28;20174;-61
2024/01/23 02:41:20;;;;;;;4.30;1.13;;;10.70;68.20;;;;;;5044299;28;20208;-63
2024/01/23 02:43:45;;;;;;;5.37;1.23;;;10.90;68.00;;;;;;5043911;28;20239;-62
2024/01/23 02:46:11;;;;;;;2.60;1.03;;;11.20;67.40;;;;;;5045477;28;20219;-62
2024/01/23 02:48:36;;;;;;;10.13;1.30;;;11.20;66.70;;;;;;5045949;28;20193;-61
2024/01/23 02:51:02;;;;;;;7.90;1.73;;;11.30;66.00;;;;;;5042248;28;20191;-62
2024/01/23 02:53:27;;;;;;;8.07;1.97;;;11.30;65.60;;;;;;5045511;28;20874;-63
2024/01/23 02:55:53;;;;;;;7.73;1.57;;;11.40;65.40;;;;;;5043530;28;20587;-64
2024/01/23 02:58:20;;;;;;;5.80;1.20;;;11.20;65.60;;;;;;5042904;28;20189;-63
2024/01/23 03:00:46;;;;;;;8.40;1.20;;;11.40;65.30;;;;;;5040557;28;20197;-63
2024/01/23 03:03:11;;;;;;;6.27;1.40;;;11.50;64.50;;;;;;5045428;28;20479;-63
2024/01/23 03:05:37;;;;;;;5.37;1.63;;;11.70;64.20;;;;;;5041987;28;20603;-62
2024/01/23 03:08:04;;;;;;;6.30;1.97;;;11.70;63.90;;;;;;5039403;28;20184;-63
2024/01/23 03:10:30;;;;;;;5.23;1.40;;;11.80;63.60;;;;;;5044312;28;20192;-61
2024/01/23 03:12:55;;;;;;;6.13;1.60;;;11.80;63.00;;;;;;5041758;28;20980;-63
2024/01/23 03:15:21;;;;;;;5.23;1.87;;;11.70;62.90;;;;;;5039709;28;20197;-62
2024/01/23 03:17:47;;;;;;;6.03;1.50;;;11.50;62.50;;;;;;5042231;28;20227;-62
2024/01/23 03:20:12;;;;;;;6.40;2.17;;;11.40;62.90;;;;;;5044469;28;20190;-58
2024/01/23 03:22:38;;;;;;;6.77;1.90;;;11.30;62.70;;;;;;5047324;28;20295;-62
2024/01/23 03:25:05;;;;;;;14.73;3.10;;;11.30;62.70;;;;;;5041280;28;20213;-62
2024/01/23 03:27:31;;;;;;;3.77;1.57;;;11.10;62.40;;;;;;5039048;28;20209;-60
2024/01/23 03:29:57;;;;;;;13.00;2.57;;;10.90;62.90;;;;;;5042157;28;21103;-62
2024/01/23 03:32:22;;;;;;;10.30;2.40;;;10.90;63.10;;;;;;5046592;28;20462;-63
2024/01/23 03:34:49;;;;;;;6.03;2.07;;;11.00;62.80;;;;;;5042667;28;20188;-62
2024/01/23 03:37:15;;;;;;;12.03;2.90;;;11.00;62.30;;;;;;5043666;28;20262;-63
2024/01/23 03:39:41;;;;;;;6.23;2.20;;;11.00;61.90;;;;;;5037146;28;20432;-62
2024/01/23 03:42:06;;;;;;;8.30;1.97;;;11.20;61.80;;;;;;5043093;28;20442;-62
2024/01/23 03:44:32;;;;;;;6.73;2.10;;;11.10;60.90;;;;;;5043051;28;20212;-63
2024/01/23 03:46:58;;;;;;;8.13;1.77;;;11.10;61.10;;;;;;5039746;28;20209;-61
2024/01/23 03:49:24;;;;;;;8.43;2.17;;;11.10;61.10;;;;;;5041882;28;20435;-62
2024/01/23 03:51:50;;;;;;;11.33;2.10;;;11.10;60.80;;;;;;5043235;28;20279;-63
2024/01/23 03:54:15;;;;;;;11.80;2.13;;;11.10;61.00;;;;;;5039078;28;20271;-62
2024/01/23 03:56:41;;;;;;;7.73;1.43;;;11.00;60.80;;;;;;5045132;28;20200;-62
2024/01/23 03:59:07;;;;;;;7.33;1.80;;;11.10;60.70;;;;;;5041557;28;20243;-61
2024/01/23 04:01:33;;;;;;;12.80;2.33;;;11.20;60.70;;;;;;5042677;28;20427;-61
2024/01/23 04:03:58;;;;;;;10.20;3.30;;;11.20;60.80;;;;;;5041315;28;20743;-61
2024/01/23 04:06:25;;;;;;;5.07;2.37;;;11.30;60.70;;;;;;5040165;28;20228;-62
2024/01/23 04:08:50;;;;;;;11.40;2.50;;;11.40;60.90;;;;;;5037136;28;20197;-61
2024/01/23 04:11:16;;;;;;;13.80;2.70;;;11.40;60.10;;;;;;5045093;28;20492;-60
2024/01/23 04:13:41;;;;;;;5.90;2.40;;;11.40;60.00;;;;;;5041900;28;20278;-63
2024/01/23 04:16:07;;;;;;;12.27;1.87;;;11.40;59.60;;;;;;5045416;28;20202;-63
2024/01/23 04:18:33;;;;;;;10.77;2.10;;;11.40;59.70;;;;;;5046265;28;20192;-63
2024/01/23 04:20:59;;;;;;;8.50;2.87;;;11.20;59.90;;;;;;5042144;28;20575;-61
2024/01/23 04:23:25;;;;;;;9.43;2.67;;;11.20;60.40;;;;;;5041865;28;20220;-62
2024/01/23 04:25:50;;;;;;;12.83;2.53;;;11.20;61.10;;;;;;5047516;28;20538;-63
2024/01/23 04:28:16;;;;;;;8.83;2.03;;;11.30;60.20;;;;;;5045048;28;20184;-62
2024/01/23 04:30:42;;;;;;;8.53;2.47;;;11.40;60.00;;;;;;5045100;28;20188;-65
2024/01/23 04:33:08;;;;;;;11.33;2.60;;;11.40;59.60;;;;;;5044117;28;20237;-64
2024/01/23 04:35:34;;;;;;;6.80;2.63;;;11.30;59.80;;;;;;5041934;28;20197;-63
2024/01/23 04:38:00;;;;;;;13.00;3.40;;;11.20;59.60;;;;;;5044487;28;20447;-62
2024/01/23 04:40:25;;;;;;;4.93;1.93;;;11.30;60.20;;;;;;5047993;28;20193;-61
2024/01/23 04:42:51;;;;;;;7.30;1.67;;;11.50;59.70;;;;;;5043897;28;20550;-63
2024/01/23 04:45:17;;;;;;;7.60;1.93;;;11.40;59.20;;;;;;5043552;28;20726;-63
2024/01/23 04:47:42;;;;;;;10.93;2.23;;;11.40;60.10;;;;;;5043587;28;20204;-62
2024/01/23 04:50:08;;;;;;;9.20;2.63;;;11.70;59.40;;;;;;5042407;28;20188;-63
2024/01/23 04:52:34;;;;;;;5.80;1.90;;;11.70;59.10;;;;;;5045973;28;20184;-59
2024/01/23 04:55:00;;;;;;;9.03;2.30;;;11.60;59.20;;;;;;5039055;28;20500;-62
2024/01/23 04:57:31;;;;;;;7.17;1.97;;;11.70;59.30;;;;;;5045381;28;20208;-60
2024/01/23 04:59:57;;;;;;;8.60;3.10;;;11.70;59.20;;;;;;5043501;28;20234;-64
2024/01/23 05:02:23;;;;;;;8.83;2.33;;;11.60;59.40;;;;;;5046156;28;20985;-62
2024/01/23 05:04:48;;;;;;;5.97;2.20;;;11.60;59.60;;;;;;5040969;28;20475;-64
2024/01/23 05:07:14;;;;;;;10.27;3.20;;;11.40;59.80;;;;;;5038998;28;20216;-60
2024/01/23 05:09:39;;;;;;;7.53;2.20;;;11.40;60.00;;;;;;5046901;28;20221;-63
2024/01/23 05:12:05;;;;;;;11.63;2.50;;;11.60;60.30;;;;;;5044358;28;20234;-62
2024/01/23 05:14:31;;;;;;;8.80;2.13;;;11.20;60.40;;;;;;5045997;28;20224;-61
2024/01/23 05:16:57;;;;;;;7.03;1.90;;;10.80;61.30;;;;;;5041373;28;20463;-62
2024/01/23 05:19:22;;;;;;;6.07;2.20;;;10.80;62.70;;;;;;5042567;28;20177;-62
2024/01/23 05:21:48;;;;;;;7.07;2.07;;;11.00;62.70;;;;;;5041396;28;20274;-62
2024/01/23 05:24:14;;;;;;;12.60;2.40;;;11.40;62.20;;;;;;5041774;28;20306;-61
2024/01/23 05:26:39;;;;;;;6.33;1.70;;;11.10;62.20;;;;;;5038837;28;20208;-61
2024/01/23 05:29:05;;;;;;;11.03;2.70;;;11.20;62.80;;;;;;5044815;28;20242;-63
2024/01/23 05:31:30;;;;;;;8.10;2.77;;;11.30;62.50;;;;;;5042354;28;20334;-59
2024/01/23 05:33:56;;;;;;;4.87;1.30;;;11.20;62.60;;;;;;5043219;28;20834;-63
2024/01/23 05:36:21;;;;;;;6.97;1.90;;;11.20;62.80;;;;;;5042275;28;20246;-64
2024/01/23 05:38:48;;;;;;;6.77;2.00;;;11.20;62.50;;;;;;5044234;28;20185;-63
2024/01/23 05:41:13;;;;;;;8.57;2.30;;;11.20;62.80;;;;;;5043538;28;20218;-62
2024/01/23 05:43:39;;;;;;;7.37;2.27;;;11.10;62.80;;;;;;5043243;28;20540;-62
2024/01/23 05:46:05;;;;;;;6.53;2.50;;;11.00;63.40;;;;;;5045572;28;20201;-62
2024/01/23 05:48:30;;;;;;;6.67;1.90;;;10.90;63.50;;;;;;5041707;28;21006;-62
2024/01/23 05:50:56;;;;;;;7.03;1.67;;;10.80;63.60;;;;;;5043033;28;20184;-61
2024/01/23 05:53:22;;;;;;;5.77;1.67;;;10.80;63.70;;;;;;5042403;28;20195;-61
2024/01/23 05:55:47;;;;;;;4.53;1.80;;;10.60;63.00;;;;;;5044079;28;20209;-62
2024/01/23 05:58:13;;;;;;;7.07;1.80;;;10.70;63.80;;;;;;5050068;28;20263;-59
2024/01/23 06:00:39;;;;;;;7.33;1.83;;;10.90;63.30;;;;;;5041085;28;20213;-62
2024/01/23 06:03:04;;;;;;;5.80;1.33;;;10.90;63.00;;;;;;5041207;28;20245;-62
2024/01/23 06:05:30;;;;;;;6.00;1.70;;;10.90;62.60;;;;;;5041221;28;20954;-62
2024/01/23 06:07:56;;;;;;;5.40;1.40;;;10.90;62.80;;;;;;5044703;28;20189;-59
2024/01/23 06:10:22;;;;;;;17.17;9.80;;;10.80;63.20;;;;;;5043219;28;20213;-63
2024/01/23 06:12:47;;;;;;;9.73;5.60;;;10.90;63.00;;;;;;5042733;28;20204;-61
2024/01/23 06:15:14;;;;;;;17.33;9.83;;;10.90;62.60;;;;;;5044012;28;20185;-59
2024/01/23 06:17:40;;;;;;;10.30;5.70;;;11.00;62.70;;;;;;5044375;28;20203;-59
2024/01/23 06:20:07;;;;;;;15.00;9.60;;;10.90;63.00;;;;;;5045584;28;22189;-63
2024/01/23 06:22:33;;;;;;;6.60;2.60;;;11.00;63.00;;;;;;5039413;28;20189;-62
2024/01/23 06:25:10;;;;;;;6.73;2.63;;;11.00;62.50;;;;;;5043985;28;21033;-61
2024/01/23 06:27:35;;;;;;;7.60;1.80;;;10.80;62.80;;;;;;5041985;28;20470;-61
2024/01/23 06:30:01;;;;;;;9.40;2.20;;;10.90;63.20;;;;;;5044178;28;20445;-62
2024/01/23 06:32:27;;;;;;;4.73;2.03;;;11.10;62.80;;;;;;5039512;28;20196;-63
2024/01/23 06:34:52;;;;;;;4.87;1.80;;;11.30;62.10;;;;;;5037769;28;20505;-63
2024/01/23 06:37:19;;;;;;;5.07;2.27;;;11.40;61.40;;;;;;5042021;28;20690;-62
2024/01/23 06:39:45;;;;;;;6.33;1.47;;;11.50;61.10;;;;;;5043842;28;20185;-63
2024/01/23 06:42:10;;;;;;;8.10;1.70;;;11.60;61.20;;;;;;5046543;28;20454;-64
2024/01/23 06:44:36;;;;;;;7.33;1.90;;;11.60;60.90;;;;;;5036701;28;20216;-63
2024/01/23 06:47:02;;;;;;;3.63;1.50;;;11.70;61.00;;;;;;5038296;28;20212;-64
2024/01/23 06:49:27;;;;;;;3.03;1.60;;;11.60;60.90;;;;;;5041685;28;20181;-63
2024/01/23 06:51:53;;;;;;;6.43;1.13;;;11.50;60.80;;;;;;5046233;28;20191;-63
2024/01/23 06:54:18;;;;;;;5.00;1.70;;;11.60;60.90;;;;;;5041304;28;20267;-63
2024/01/23 06:56:45;;;;;;;3.30;1.50;;;11.60;60.50;;;;;;5043085;28;20668;-64
2024/01/23 06:59:12;;;;;;;4.30;1.73;;;11.50;60.80;;;;;;5040496;28;20290;-61
2024/01/23 07:01:41;;;;;;;4.83;1.87;;;11.60;60.70;;;;;;5038524;28;20432;-60
2024/01/23 07:04:07;;;;;;;9.97;2.27;;;11.50;61.00;;;;;;5037850;28;20562;-64
2024/01/23 07:06:32;;;;;;;4.33;1.50;;;11.60;60.90;;;;;;5039632;28;20577;-63
2024/01/23 07:08:58;;;;;;;4.13;1.30;;;11.10;61.30;;;;;;5038886;28;20420;-62
2024/01/23 07:11:24;;;;;;;6.07;1.47;;;10.90;62.40;;;;;;5046208;28;20181;-62
2024/01/23 07:13:51;;;;;;;2.53;1.40;;;10.90;63.00;;;;;;5041859;28;20259;-63
2024/01/23 07:16:16;;;;;;;7.50;2.10;;;11.10;62.80;;;;;;5046236;28;20204;-64
2024/01/23 07:18:42;;;;;;;3.23;1.10;;;11.00;62.10;;;;;;5038444;28;20512;-63
2024/01/23 07:21:09;;;;;;;5.53;1.27;;;10.90;62.40;;;;;;5044091;28;20276;-61
2024/01/23 07:23:35;;;;;;;3.37;2.00;;;10.90;62.70;;;;;;5029323;28;20768;-61
2024/01/23 07:26:00;;;;;;;6.27;2.27;;;10.90;62.80;;;;;;5043833;28;20542;-62
2024/01/23 07:28:26;;;;;;;7.47;1.87;;;11.10;62.60;;;;;;5045928;28;20435;-62
2024/01/23 07:30:52;;;;;;;5.10;2.07;;;11.00;62.00;;;;;;5041535;28;20254;-60
2024/01/23 07:33:17;;;;;;;3.20;1.60;;;11.00;61.90;;;;;;5041707;28;20189;-62
2024/01/23 07:35:43;;;;;;;7.73;1.50;;;11.10;62.00;;;;;;5039249;28;20695;-62
2024/01/23 07:38:11;;;;;;;4.10;2.80;;;11.60;61.30;;;;;;5044497;28;20544;-66
2024/01/23 07:40:39;;;;;;;4.33;2.23;;;12.10;59.00;;;;;;5042941;28;20188;-63
2024/01/23 07:43:05;;;;;;;6.20;1.67;;;12.70;57.70;;;;;;5042885;28;20439;-64
2024/01/23 07:45:31;;;;;;;2.73;1.43;;;13.10;56.60;;;;;;5037375;28;20470;-62
2024/01/23 07:47:57;;;;;;;5.17;2.20;;;13.50;55.80;;;;;;5042753;28;20479;-64
2024/01/23 07:50:23;;;;;;;4.40;1.60;;;13.80;54.60;;;;;;5048196;28;20383;-64
2024/01/23 07:52:48;;;;;;;3.90;1.80;;;14.20;54.20;;;;;;5038332;28;20197;-62
2024/01/23 07:55:14;;;;;;;5.57;1.37;;;14.20;52.70;;;;;;5044954;28;20216;-63
2024/01/23 07:57:39;;;;;;;3.57;1.87;;;13.90;53.20;;;;;;5048763;28;20196;-60
2024/01/23 08:00:07;;;;;;;5.27;1.57;;;13.90;53.60;;;;;;5048456;28;20208;-65
2024/01/23 08:02:32;;;;;;;2.53;1.73;;;13.90;53.80;;;;;;5048362;28;20559;-60
2024/01/23 08:04:59;;;;;;;3.43;1.40;;;13.80;53.20;;;;;;5045440;28;20477;-59
2024/01/23 08:07:24;;;;;;;4.23;3.20;;;13.70;53.50;;;;;;5046827;28;20200;-61
2024/01/23 08:09:50;;;;;;;4.07;1.47;;;13.60;53.60;;;;;;5043041;28;20438;-60
2024/01/23 08:12:16;;;;;;;4.17;2.07;;;13.60;53.70;;;;;;5039316;28;20173;-60
2024/01/23 08:14:42;;;;;;;2.60;1.57;;;13.50;53.60;;;;;;5039592;28;20427;-65
2024/01/23 08:17:07;;;;;;;4.93;1.10;;;13.00;54.00;;;;;;5048529;28;20192;-62
2024/01/23 08:19:33;;;;;;;1.80;1.07;;;12.80;54.90;;;;;;5043663;28;20192;-62
2024/01/23 08:21:58;;;;;;;4.07;1.40;;;12.60;55.40;;;;;;5041434;28;20276;-59
2024/01/23 08:24:24;;;;;;;4.50;1.60;;;12.30;56.20;;;;;;5040138;28;20312;-60
2024/01/23 08:26:52;;;;;;;5.03;2.10;;;12.10;56.80;;;;;;5040762;28;20209;-63
2024/01/23 08:29:19;;;;;;;5.40;3.60;;;12.10;57.10;;;;;;5038420;28;20193;-60
2024/01/23 08:31:45;;;;;;;6.40;4.83;;;12.10;57.10;;;;;;5041617;28;21012;-62
2024/01/23 08:34:11;;;;;;;4.60;3.50;;;12.20;57.10;;;;;;5044396;28;20704;-61
2024/01/23 08:36:36;;;;;;;5.53;3.10;;;12.30;57.20;;;;;;5040258;28;20520;-62
2024/01/23 08:39:02;;;;;;;7.40;3.90;;;12.30;57.10;;;;;;5043896;28;20192;-61
2024/01/23 08:41:28;;;;;;;7.63;3.00;;;12.30;57.20;;;;;;5041350;28;20200;-60
2024/01/23 08:43:53;;;;;;;8.37;2.80;;;12.10;57.00;;;;;;5048653;28;20839;-63
2024/01/23 08:46:19;;;;;;;9.00;2.47;;;11.90;57.40;;;;;;5045610;28;20595;-62
2024/01/23 08:48:44;;;;;;;3.63;2.30;;;11.90;57.70;;;;;;5045074;28;20280;-60
2024/01/23 08:51:10;;;;;;;6.10;2.10;;;11.70;58.20;;;;;;5041232;28;20185;-64
2024/01/23 08:53:36;;;;;;;5.53;1.90;;;11.60;58.40;;;;;;5051368;28;20180;-60
2024/01/23 08:56:02;;;;;;;8.20;2.67;;;11.50;59.10;;;;;;5045349;28;21393;-58
2024/01/23 08:58:28;;;;;;;3.43;1.40;;;11.30;59.00;;;;;;5039012;28;20428;-61
2024/01/23 09:00:53;;;;;;;4.80;2.03;;;11.40;59.60;;;;;;5039559;28;20187;-62
2024/01/23 09:03:19;;;;;;;2.40;2.20;;;11.40;59.60;;;;;;5048264;28;20176;-63
2024/01/23 09:05:44;;;;;;;5.83;2.47;;;11.20;60.00;;;;;;5040957;28;20217;-64
2024/01/23 09:08:10;;;;;;;8.13;1.50;;;11.30;59.90;;;;;;5046601;28;20193;-63
2024/01/23 09:10:36;;;;;;;6.00;2.13;;;11.40;59.70;;;;;;5039062;28;20184;-65
2024/01/23 09:13:01;;;;;;;5.70;1.30;;;11.60;59.50;;;;;;5043687;28;20217;-62
2024/01/23 09:15:27;;;;;;;5.47;1.90;;;11.40;59.30;;;;;;5041158;28;20189;-59
2024/01/23 09:17:52;;;;;;;5.03;2.00;;;11.40;59.50;;;;;;5045096;28;20224;-62
2024/01/23 09:20:18;;;;;;;4.73;1.87;;;11.40;60.20;;;;;;5044842;28;20181;-62
2024/01/23 09:22:44;;;;;;;3.60;1.60;;;11.50;59.90;;;;;;5040532;28;20228;-58
2024/01/23 09:25:09;;;;;;;4.93;1.60;;;11.60;59.40;;;;;;5044072;28;20216;-58
2024/01/23 09:27:35;;;;;;;7.40;1.60;;;11.60;59.30;;;;;;5038593;28;20204;-60
2024/01/23 09:30:00;;;;;;;4.00;1.80;;;11.60;59.30;;;;;;5038763;28;20189;-63
2024/01/23 09:32:26;;;;;;;4.13;1.20;;;11.60;59.30;;;;;;5040805;28;20200;-61
2024/01/23 09:34:51;;;;;;;4.30;1.90;;;11.50;59.50;;;;;;5042997;28;20593;-59
2024/01/23 09:37:17;;;;;;;3.13;1.37;;;11.50;59.50;;;;;;5042744;28;20702;-60
2024/01/23 09:39:43;;;;;;;2.80;1.77;;;11.60;59.60;;;;;;5039841;28;20560;-58
2024/01/23 09:42:10;;;;;;;6.40;1.90;;;11.50;59.70;;;;;;5039113;28;20822;-62
2024/01/23 09:44:36;;;;;;;4.53;1.80;;;11.60;59.80;;;;;;5037534;28;20268;-62
2024/01/23 09:47:03;;;;;;;3.50;1.20;;;11.50;59.80;;;;;;5042708;28;20488;-62
2024/01/23 09:49:31;;;;;;;1.97;1.50;;;11.30;59.90;;;;;;5032375;28;20420;-60
2024/01/23 09:52:04;;;;;;;5.17;1.67;;;11.30;60.40;;;;;;5045303;28;20434;-61
2024/01/23 09:54:31;;;;;;;5.70;1.63;;;11.40;60.70;;;;;;5049679;28;20442;-60
2024/01/23 09:56:58;;;;;;;6.30;1.77;;;11.70;60.20;;;;;;5047956;28;20443;-59
2024/01/23 09:59:24;;;;;;;2.50;1.80;;;11.60;59.90;;;;;;5045140;28;20756;-59
2024/01/23 10:01:50;;;;;;;7.43;1.67;;;11.60;60.00;;;;;;5045701;28;20446;-62
2024/01/23 10:04:19;;;;;;;5.47;1.90;;;11.40;60.10;;;;;;5045845;28;20274;-58
2024/01/23 10:06:45;;;;;;;3.33;1.40;;;11.40;60.70;;;;;;5036686;28;21005;-59
2024/01/23 10:09:10;;;;;;;2.20;1.03;;;11.50;60.50;;;;;;5048613;28;20415;-61
2024/01/23 10:11:36;;;;;;;7.10;1.90;;;11.40;60.30;;;;;;5035951;28;20186;-61
2024/01/23 10:14:02;;;;;;;5.57;1.77;;;11.50;60.90;;;;;;5040868;28;21194;-61
2024/01/23 10:16:28;;;;;;;7.03;1.53;;;11.50;60.60;;;;;;5046266;28;20204;-58
2024/01/23 10:18:54;;;;;;;6.37;2.33;;;11.50;61.90;;;;;;5035503;28;20438;-59
2024/01/23 10:21:21;;;;;;;4.07;1.40;;;11.20;60.80;;;;;;5038913;28;20447;-58
2024/01/23 10:23:49;;;;;;;2.90;1.17;;;11.40;61.70;;;;;;5043731;28;20239;-61
2024/01/23 10:26:15;;;;;;;3.60;1.70;;;11.90;61.20;;;;;;5043667;28;21061;-59
2024/01/23 10:28:45;;;;;;;4.50;2.80;;;12.40;59.90;;;;;;5040089;28;20424;-61
2024/01/23 10:31:11;;;;;;;2.53;1.30;;;12.50;58.60;;;;;;5031048;28;20590;-64
2024/01/23 10:33:37;;;;;;;3.20;1.30;;;12.70;58.20;;;;;;5043262;28;20443;-62
2024/01/23 10:36:05;;;;;;;1.93;1.07;;;12.50;57.50;;;;;;5038450;28;20508;-61
2024/01/23 10:38:31;;;;;;;2.80;1.33;;;12.20;58.20;;;;;;5042531;28;20473;-60
2024/01/23 10:40:59;;;;;;;5.60;1.17;;;12.30;58.40;;;;;;5039109;28;20428;-60
2024/01/23 10:43:28;;;;;;;3.37;1.17;;;12.40;58.30;;;;;;5040380;28;20464;-62
2024/01/23 10:45:54;;;;;;;3.40;2.00;;;12.50;58.30;;;;;;5043292;28;20917;-59
2024/01/23 10:48:20;;;;;;;2.93;1.60;;;12.80;57.60;;;;;;5040949;28;20887;-61
2024/01/23 10:50:50;;;;;;;5.53;1.53;;;12.70;57.10;;;;;;5040278;28;20499;-62
2024/01/23 10:53:20;;;;;;;2.30;1.03;;;12.70;57.40;;;;;;5037095;28;20195;-59
2024/01/23 10:55:47;;;;;;;6.40;1.50;;;12.90;57.40;;;;;;5039782;28;20466;-63
2024/01/23 10:58:31;;;;;;;5.87;1.90;;;12.70;57.50;;;;;;5041727;28;20469;-59
2024/01/23 11:00:59;;;;;;;4.63;1.60;;;12.60;57.40;;;;;;5039434;28;20447;-58
2024/01/23 11:03:25;;;;;;;3.07;1.90;;;12.30;57.90;;;;;;5033529;28;20851;-62
2024/01/23 11:05:53;;;;;;;4.73;2.00;;;12.30;58.10;;;;;;5040567;28;20463;-64
2024/01/23 11:08:27;;;;;;;6.77;1.70;;;12.30;58.40;;;;;;5041337;28;20925;-63
2024/01/23 11:10:59;;;;;;;7.00;2.93;;;12.40;58.30;;;;;;5042091;28;20428;-60
2024/01/23 11:13:49;;;;;;;4.33;1.70;;;12.40;58.20;;;;;;5039610;28;20467;-58
2024/01/23 11:16:16;;;;;;;7.30;1.80;;;12.50;58.20;;;;;;5043344;28;21103;-59
2024/01/23 11:18:42;;;;;;;7.17;1.70;;;12.60;58.10;;;;;;5042935;28;20443;-63
2024/01/23 11:21:11;;;;;;;5.03;1.90;;;12.60;57.50;;;;;;5044569;28;20428;-58
2024/01/23 11:23:42;;;;;;;5.30;1.70;;;12.80;57.10;;;;;;5040246;28;20227;-61
2024/01/23 11:26:19;;;;;;;4.57;1.90;;;12.60;57.10;;;;;;5036824;28;20463;-63
2024/01/23 11:28:52;;;;;;;6.20;1.80;;;12.60;57.00;;;;;;5039627;28;20447;-58
2024/01/23 11:31:23;;;;;;;5.40;2.23;;;12.60;57.20;;;;;;5044341;28;20460;-63
2024/01/23 11:33:51;;;;;;;8.87;2.33;;;12.70;56.40;;;;;;5043302;28;20411;-62
2024/01/23 11:36:28;;;;;;;5.83;1.97;;;12.40;55.60;;;;;;5042301;28;20442;-57
2024/01/23 11:38:57;;;;;;;5.70;1.50;;;12.50;55.90;;;;;;5039360;28;21156;-58
2024/01/23 11:41:24;;;;;;;4.90;1.93;;;12.40;55.30;;;;;;5040016;28;20557;-58
2024/01/23 11:44:04;;;;;;;10.83;4.13;;;12.30;54.40;;;;;;5043235;28;20485;-59
2024/01/23 11:46:30;;;;;;;9.67;2.10;;;12.30;54.10;;;;;;5042566;28;20439;-59
2024/01/23 11:48:56;;;;;;;7.70;1.80;;;12.30;53.70;;;;;;5043486;28;20967;-60
2024/01/23 11:51:22;;;;;;;8.57;2.13;;;12.50;53.50;;;;;;5045475;28;20615;-57
2024/01/23 11:53:48;;;;;;;11.47;2.30;;;12.60;52.80;;;;;;5037160;28;20680;-60
2024/01/23 11:56:15;;;;;;;8.67;2.30;;;12.60;51.80;;;;;;5043603;28;20454;-59
2024/01/23 11:58:41;;;;;;;10.13;2.30;;;12.70;51.80;;;;;;5036902;28;20260;-58
2024/01/23 12:01:09;;;;;;;9.80;3.70;;;12.90;51.50;;;;;;5042588;28;20434;-60
2024/01/23 12:03:35;;;;;;;9.80;2.23;;;13.00;51.10;;;;;;5042801;28;20497;-59
2024/01/23 12:06:04;;;;;;;7.17;2.20;;;13.10;50.60;;;;;;5033415;28;20534;-61
2024/01/23 12:08:29;;;;;;;7.67;3.10;;;13.20;50.40;;;;;;5036700;28;20201;-60
2024/01/23 12:10:56;;;;;;;8.80;2.50;;;13.30;49.80;;;;;;5046019;28;20506;-58
2024/01/23 12:13:23;;;;;;;7.27;2.20;;;13.30;49.20;;;;;;5041600;28;20212;-57
2024/01/23 12:15:48;;;;;;;9.83;2.07;;;13.10;48.40;;;;;;5035158;28;20486;-62
2024/01/23 12:18:14;;;;;;;7.73;2.27;;;13.30;49.20;;;;;;5040136;28;20459;-57
2024/01/23 12:20:50;;;;;;;7.00;1.70;;;13.30;48.80;;;;;;5031754;28;20809;-58
2024/01/23 12:23:19;;;;;;;8.83;2.27;;;13.50;48.50;;;;;;5038767;28;20909;-58
2024/01/23 12:25:46;;;;;;;5.10;1.70;;;13.50;47.90;;;;;;5040088;28;20957;-59
2024/01/23 12:28:11;;;;;;;12.07;2.90;;;13.60;48.80;;;;;;5044135;28;20447;-60
2024/01/23 12:30:37;;;;;;;3.57;1.63;;;13.70;48.50;;;;;;5030768;28;20434;-61
2024/01/23 12:33:03;;;;;;;10.20;2.10;;;13.80;48.80;;;;;;5038917;28;20189;-61
2024/01/23 12:35:29;;;;;;;7.63;2.30;;;13.90;48.00;;;;;;5049090;28;20188;-64
2024/01/23 12:37:55;;;;;;;6.87;1.73;;;14.10;47.90;;;;;;5048268;28;20451;-61
2024/01/23 12:40:21;;;;;;;4.80;1.67;;;14.10;47.70;;;;;;5041807;28;20211;-61